South Washington, Indiana
Current Conditions -  °F | °C
As of 12:15 AM on Thursday 29 Jan 2015 (Local Time) from KDCY Reporting Station
Scattered Clouds Scattered Clouds  
Wind Chill: -1°   Ceiling: Unl
Heat Index:   Visibility: 10mi
Dew Point: -6°   Wind: 13mph
Humidity: 50%   Direction: 180°S
Pressure: 29.97"   Gusts: NA
Location:  38.6427°N, 87.1768°W
Report Text: KDCY 290615Z AUTO 18011KT 10SM SCT120 03/M06 A2997 RMK AO2 T00321064
Loading
Personal Weather Stations






























Interactive Weather Map New forecast layout! Learn more

10-Day Weather Forecast

Advertisements
Track Severe Weather on mobile